DK-0016 weather

Sølager flyveplads
Denmark

Public forecast

Using degrees Celsius for public forecast. Weather courtesy of forecast.io.

Closest aviation weather report (METAR) to Sølager flyveplads

Closest report is Copenhagen Roskilde Airport, 23.0 nm (42.5 km) SSE. Retrieved 2020/04/02 04:50 UTC (19 minutes ago):

EKRK 020450Z AUTO 26013KT 9999 -RA OVC016/// 05/03 Q1005

Closest aviation forecast (TAF) to Sølager flyveplads

Closest forecast is Copenhagen Kastrup Airport, 31.7 nm (58.8 km) SE. Retrieved 2020-04-02 00:09 UTC (5 hours ago):

TAF EKCH 012305Z 0200/0224 26015KT 9999 BKN020 TEMPO 0200/0206 BKN012 TEMPO 0206/0209 27018G30KT BECMG 0209/0212 25025KT TEMPO 0212/0217 26030G40KT TEMPO 0217/0221 27030G40KT 4000 SHRA BKN012 TEMPO 0221/0224 27025G35KT